Terminal Aerodrome Forecast
Issued by NWS

Current Version | Previous Version | Text Only | Print | Product List | Glossary On
Versions: 1 2 3 4 5 6 7 8 9 10 11 12 13 14 15 16 17 18 19
000
FTAK31 PAJN 181700
TAFAGY
TAF
PAGY 181725Z 1818/1918 00000KT P6SM VCSH SCT020 OVC060
     FM182000 05004KT P6SM -RA SCT020 OVC050
     FM190200 VRB03KT 6SM -RA BR SCT020 OVC040
     FM190800 20008KT P6SM -RA SCT025 OVC050
     FM191500 21017KT P6SM -RA SCT030 OVC050
      AMD LTD TO CLD VIS AND WIND=

USA.gov is the U.S. government's official web portal to all federal, state and local government web resources and services.